sensor_id;sensor_type;location;lat;lon;timestamp;temperature;humidity
30889;DHT22;51092;50.874;7.024;2024-02-16T00:00:07;13.00;80.70
30889;DHT22;51092;50.874;7.024;2024-02-16T00:01:08;13.10;80.90
30889;DHT22;51092;50.874;7.024;2024-02-16T00:02:10;13.00;81.40
30889;DHT22;51092;50.874;7.024;2024-02-16T00:03:12;13.20;80.80
30889;DHT22;51092;50.874;7.024;2024-02-16T00:04:15;13.20;79.90
30889;DHT22;51092;50.874;7.024;2024-02-16T00:05:16;13.20;80.00
30889;DHT22;51092;50.874;7.024;2024-02-16T00:06:18;13.20;80.20
30889;DHT22;51092;50.874;7.024;2024-02-16T00:07:20;13.20;79.80
30889;DHT22;51092;50.874;7.024;2024-02-16T00:08:24;13.30;79.80
30889;DHT22;51092;50.874;7.024;2024-02-16T00:09:26;13.30;79.10
30889;DHT22;51092;50.874;7.024;2024-02-16T00:10:29;13.20;79.40
30889;DHT22;51092;50.874;7.024;2024-02-16T00:11:31;13.20;79.80
30889;DHT22;51092;50.874;7.024;2024-02-16T00:12:33;13.00;80.50
30889;DHT22;51092;50.874;7.024;2024-02-16T00:13:34;13.10;80.60
30889;DHT22;51092;50.874;7.024;2024-02-16T00:14:36;13.10;80.20
30889;DHT22;51092;50.874;7.024;2024-02-16T00:15:37;13.30;80.00
30889;DHT22;51092;50.874;7.024;2024-02-16T00:16:39;13.20;79.80
30889;DHT22;51092;50.874;7.024;2024-02-16T00:17:42;13.30;79.80
30889;DHT22;51092;50.874;7.024;2024-02-16T00:18:43;13.30;79.70
30889;DHT22;51092;50.874;7.024;2024-02-16T00:19:46;13.30;78.90
30889;DHT22;51092;50.874;7.024;2024-02-16T00:20:47;13.30;79.20
30889;DHT22;51092;50.874;7.024;2024-02-16T00:21:50;13.40;79.10
30889;DHT22;51092;50.874;7.024;2024-02-16T00:22:52;13.30;78.70
30889;DHT22;51092;50.874;7.024;2024-02-16T00:23:56;13.30;79.00
30889;DHT22;51092;50.874;7.024;2024-02-16T00:24:57;13.20;79.70
30889;DHT22;51092;50.874;7.024;2024-02-16T00:26:02;13.10;80.50
30889;DHT22;51092;50.874;7.024;2024-02-16T00:27:08;13.10;80.00
30889;DHT22;51092;50.874;7.024;2024-02-16T00:28:09;13.00;80.60
30889;DHT22;51092;50.874;7.024;2024-02-16T00:29:12;13.10;80.20
30889;DHT22;51092;50.874;7.024;2024-02-16T00:30:14;13.00;80.50
30889;DHT22;51092;50.874;7.024;2024-02-16T00:31:18;13.20;80.50
30889;DHT22;51092;50.874;7.024;2024-02-16T00:32:20;13.10;80.00
30889;DHT22;51092;50.874;7.024;2024-02-16T00:33:25;13.10;79.90
30889;DHT22;51092;50.874;7.024;2024-02-16T00:34:27;13.10;79.90
30889;DHT22;51092;50.874;7.024;2024-02-16T00:35:30;13.20;80.10
30889;DHT22;51092;50.874;7.024;2024-02-16T00:36:34;13.20;79.50
30889;DHT22;51092;50.874;7.024;2024-02-16T00:37:36;13.00;80.20
30889;DHT22;51092;50.874;7.024;2024-02-16T00:38:39;13.10;80.20
30889;DHT22;51092;50.874;7.024;2024-02-16T00:39:42;13.10;79.60
30889;DHT22;51092;50.874;7.024;2024-02-16T00:40:44;13.30;78.90
30889;DHT22;51092;50.874;7.024;2024-02-16T00:41:46;13.30;78.80
30889;DHT22;51092;50.874;7.024;2024-02-16T00:42:48;13.20;79.40
30889;DHT22;51092;50.874;7.024;2024-02-16T00:43:50;13.10;79.70
30889;DHT22;51092;50.874;7.024;2024-02-16T00:44:53;13.20;79.30
30889;DHT22;51092;50.874;7.024;2024-02-16T00:45:54;13.10;79.90
30889;DHT22;51092;50.874;7.024;2024-02-16T00:46:57;13.10;80.30
30889;DHT22;51092;50.874;7.024;2024-02-16T00:47:59;13.20;79.40
30889;DHT22;51092;50.874;7.024;2024-02-16T00:49:03;13.20;79.40
30889;DHT22;51092;50.874;7.024;2024-02-16T00:50:05;13.00;80.00
30889;DHT22;51092;50.874;7.024;2024-02-16T00:51:09;13.00;80.20
30889;DHT22;51092;50.874;7.024;2024-02-16T00:52:11;13.00;80.30
30889;DHT22;51092;50.874;7.024;2024-02-16T00:53:13;13.20;79.90
30889;DHT22;51092;50.874;7.024;2024-02-16T00:54:15;13.10;79.80
30889;DHT22;51092;50.874;7.024;2024-02-16T00:55:19;13.10;80.30
30889;DHT22;51092;50.874;7.024;2024-02-16T00:56:21;13.00;80.30
30889;DHT22;51092;50.874;7.024;2024-02-16T00:57:24;12.90;81.00
30889;DHT22;51092;50.874;7.024;2024-02-16T00:58:26;13.00;80.60
30889;DHT22;51092;50.874;7.024;2024-02-16T00:59:28;13.20;80.10
30889;DHT22;51092;50.874;7.024;2024-02-16T01:00:31;13.10;80.20
30889;DHT22;51092;50.874;7.024;2024-02-16T01:01:33;13.10;80.20
30889;DHT22;51092;50.874;7.024;2024-02-16T01:02:35;13.10;79.90
30889;DHT22;51092;50.874;7.024;2024-02-16T01:03:37;13.20;80.00
30889;DHT22;51092;50.874;7.024;2024-02-16T01:04:38;13.30;79.20
30889;DHT22;51092;50.874;7.024;2024-02-16T01:05:41;13.20;79.40
30889;DHT22;51092;50.874;7.024;2024-02-16T01:06:42;13.20;79.60
30889;DHT22;51092;50.874;7.024;2024-02-16T01:07:44;13.10;79.70
30889;DHT22;51092;50.874;7.024;2024-02-16T01:08:46;13.20;79.20
30889;DHT22;51092;50.874;7.024;2024-02-16T01:09:48;13.20;79.30
30889;DHT22;51092;50.874;7.024;2024-02-16T01:10:52;13.20;79.20
30889;DHT22;51092;50.874;7.024;2024-02-16T01:11:53;13.10;79.80
30889;DHT22;51092;50.874;7.024;2024-02-16T01:12:54;13.20;79.20
30889;DHT22;51092;50.874;7.024;2024-02-16T01:13:57;13.20;79.80
30889;DHT22;51092;50.874;7.024;2024-02-16T01:14:58;13.20;79.00
30889;DHT22;51092;50.874;7.024;2024-02-16T01:16:02;13.20;78.80
30889;DHT22;51092;50.874;7.024;2024-02-16T01:17:04;13.20;78.80
30889;DHT22;51092;50.874;7.024;2024-02-16T01:18:06;13.20;78.60
30889;DHT22;51092;50.874;7.024;2024-02-16T01:19:07;13.30;78.80
30889;DHT22;51092;50.874;7.024;2024-02-16T01:20:11;13.30;78.40
30889;DHT22;51092;50.874;7.024;2024-02-16T01:21:13;13.30;78.50
30889;DHT22;51092;50.874;7.024;2024-02-16T01:22:16;13.20;78.60
30889;DHT22;51092;50.874;7.024;2024-02-16T01:23:17;13.20;79.20
30889;DHT22;51092;50.874;7.024;2024-02-16T01:24:19;13.30;78.70
30889;DHT22;51092;50.874;7.024;2024-02-16T01:25:21;13.40;77.90
30889;DHT22;51092;50.874;7.024;2024-02-16T01:26:23;13.30;77.90
30889;DHT22;51092;50.874;7.024;2024-02-16T01:27:25;13.40;78.20
30889;DHT22;51092;50.874;7.024;2024-02-16T01:28:28;13.50;77.20
30889;DHT22;51092;50.874;7.024;2024-02-16T01:29:31;13.40;77.50
30889;DHT22;51092;50.874;7.024;2024-02-16T01:30:33;13.50;77.30
30889;DHT22;51092;50.874;7.024;2024-02-16T01:31:36;13.50;76.90
30889;DHT22;51092;50.874;7.024;2024-02-16T01:32:38;13.40;77.50
30889;DHT22;51092;50.874;7.024;2024-02-16T01:33:40;13.30;77.60
30889;DHT22;51092;50.874;7.024;2024-02-16T01:34:42;13.30;77.90
30889;DHT22;51092;50.874;7.024;2024-02-16T01:35:47;13.40;77.80
30889;DHT22;51092;50.874;7.024;2024-02-16T01:36:49;13.40;77.40
30889;DHT22;51092;50.874;7.024;2024-02-16T01:37:51;13.40;77.50
30889;DHT22;51092;50.874;7.024;2024-02-16T01:38:53;13.20;78.60
30889;DHT22;51092;50.874;7.024;2024-02-16T01:39:55;13.20;78.60
30889;DHT22;51092;50.874;7.024;2024-02-16T01:40:57;13.20;79.10
30889;DHT22;51092;50.874;7.024;2024-02-16T01:42:00;13.20;78.50
30889;DHT22;51092;50.874;7.024;2024-02-16T01:43:02;13.20;78.80
30889;DHT22;51092;50.874;7.024;2024-02-16T01:44:04;13.40;78.20
30889;DHT22;51092;50.874;7.024;2024-02-16T01:45:07;13.30;77.90
30889;DHT22;51092;50.874;7.024;2024-02-16T01:46:11;13.30;78.60
30889;DHT22;51092;50.874;7.024;2024-02-16T01:47:12;13.30;78.10
30889;DHT22;51092;50.874;7.024;2024-02-16T01:48:15;13.40;77.60
30889;DHT22;51092;50.874;7.024;2024-02-16T01:49:17;13.40;77.30
30889;DHT22;51092;50.874;7.024;2024-02-16T01:50:19;13.30;77.50
30889;DHT22;51092;50.874;7.024;2024-02-16T01:51:23;13.40;78.00
30889;DHT22;51092;50.874;7.024;2024-02-16T01:52:25;13.40;78.00
30889;DHT22;51092;50.874;7.024;2024-02-16T01:53:28;13.30;78.80
30889;DHT22;51092;50.874;7.024;2024-02-16T01:54:30;13.40;78.70
30889;DHT22;51092;50.874;7.024;2024-02-16T01:55:33;13.40;78.70
30889;DHT22;51092;50.874;7.024;2024-02-16T01:56:34;13.30;79.00
30889;DHT22;51092;50.874;7.024;2024-02-16T01:57:39;13.30;79.30
30889;DHT22;51092;50.874;7.024;2024-02-16T01:58:40;13.30;79.60
30889;DHT22;51092;50.874;7.024;2024-02-16T01:59:43;13.30;79.30
30889;DHT22;51092;50.874;7.024;2024-02-16T02:00:44;13.20;80.00
30889;DHT22;51092;50.874;7.024;2024-02-16T02:01:47;13.40;79.70
30889;DHT22;51092;50.874;7.024;2024-02-16T02:02:48;13.30;80.20
30889;DHT22;51092;50.874;7.024;2024-02-16T02:03:52;13.30;80.20
30889;DHT22;51092;50.874;7.024;2024-02-16T02:04:53;13.20;80.50
30889;DHT22;51092;50.874;7.024;2024-02-16T02:05:56;13.20;80.20
30889;DHT22;51092;50.874;7.024;2024-02-16T02:06:57;13.20;80.60
30889;DHT22;51092;50.874;7.024;2024-02-16T02:08:09;13.10;80.70
30889;DHT22;51092;50.874;7.024;2024-02-16T02:09:10;13.10;80.90
30889;DHT22;51092;50.874;7.024;2024-02-16T02:10:13;13.10;81.00
30889;DHT22;51092;50.874;7.024;2024-02-16T02:11:14;13.20;80.30
30889;DHT22;51092;50.874;7.024;2024-02-16T02:12:17;13.10;80.90
30889;DHT22;51092;50.874;7.024;2024-02-16T02:13:20;13.20;81.20
30889;DHT22;51092;50.874;7.024;2024-02-16T02:14:24;13.30;79.90
30889;DHT22;51092;50.874;7.024;2024-02-16T02:15:27;13.30;79.60
30889;DHT22;51092;50.874;7.024;2024-02-16T02:16:29;13.30;79.30
30889;DHT22;51092;50.874;7.024;2024-02-16T02:17:31;13.30;79.40
30889;DHT22;51092;50.874;7.024;2024-02-16T02:18:33;13.50;78.70
30889;DHT22;51092;50.874;7.024;2024-02-16T02:19:35;13.30;79.20
30889;DHT22;51092;50.874;7.024;2024-02-16T02:20:37;13.40;79.30
30889;DHT22;51092;50.874;7.024;2024-02-16T02:21:39;13.30;79.30
30889;DHT22;51092;50.874;7.024;2024-02-16T02:22:43;13.40;79.20
30889;DHT22;51092;50.874;7.024;2024-02-16T02:23:44;13.20;79.30
30889;DHT22;51092;50.874;7.024;2024-02-16T02:24:48;13.20;79.70
30889;DHT22;51092;50.874;7.024;2024-02-16T02:25:50;13.30;79.50
30889;DHT22;51092;50.874;7.024;2024-02-16T02:26:52;13.30;79.40
30889;DHT22;51092;50.874;7.024;2024-02-16T02:27:54;13.40;79.20
30889;DHT22;51092;50.874;7.024;2024-02-16T02:28:56;13.30;79.60
30889;DHT22;51092;50.874;7.024;2024-02-16T02:29:58;13.20;79.80
30889;DHT22;51092;50.874;7.024;2024-02-16T02:31:00;13.10;80.50
30889;DHT22;51092;50.874;7.024;2024-02-16T02:32:02;13.10;80.40
30889;DHT22;51092;50.874;7.024;2024-02-16T02:33:05;12.90;81.70
30889;DHT22;51092;50.874;7.024;2024-02-16T02:34:07;12.90;82.10
30889;DHT22;51092;50.874;7.024;2024-02-16T02:35:10;12.90;82.40
30889;DHT22;51092;50.874;7.024;2024-02-16T02:36:12;12.80;82.90
30889;DHT22;51092;50.874;7.024;2024-02-16T02:37:14;12.80;83.40
30889;DHT22;51092;50.874;7.024;2024-02-16T02:38:18;12.90;83.40
30889;DHT22;51092;50.874;7.024;2024-02-16T02:39:19;12.90;82.70
30889;DHT22;51092;50.874;7.024;2024-02-16T02:40:21;12.90;82.90
30889;DHT22;51092;50.874;7.024;2024-02-16T02:41:23;13.00;82.70
30889;DHT22;51092;50.874;7.024;2024-02-16T02:42:25;12.90;82.50
30889;DHT22;51092;50.874;7.024;2024-02-16T02:43:28;12.90;82.90
30889;DHT22;51092;50.874;7.024;2024-02-16T02:44:30;12.90;83.20
30889;DHT22;51092;50.874;7.024;2024-02-16T02:45:33;12.90;83.30
30889;DHT22;51092;50.874;7.024;2024-02-16T02:46:35;12.90;83.40
30889;DHT22;51092;50.874;7.024;2024-02-16T02:47:37;12.90;83.60
30889;DHT22;51092;50.874;7.024;2024-02-16T02:48:39;12.90;83.60
30889;DHT22;51092;50.874;7.024;2024-02-16T02:49:41;12.80;84.30
30889;DHT22;51092;50.874;7.024;2024-02-16T02:50:43;12.80;84.00
30889;DHT22;51092;50.874;7.024;2024-02-16T02:51:45;12.90;83.80
30889;DHT22;51092;50.874;7.024;2024-02-16T02:52:47;12.80;84.20
30889;DHT22;51092;50.874;7.024;2024-02-16T02:53:50;12.80;84.50
30889;DHT22;51092;50.874;7.024;2024-02-16T02:54:52;12.80;84.70
30889;DHT22;51092;50.874;7.024;2024-02-16T02:55:54;12.80;84.90
30889;DHT22;51092;50.874;7.024;2024-02-16T02:56:56;12.80;85.20
30889;DHT22;51092;50.874;7.024;2024-02-16T02:57:59;12.80;84.90
30889;DHT22;51092;50.874;7.024;2024-02-16T02:59:00;12.80;85.30
30889;DHT22;51092;50.874;7.024;2024-02-16T03:00:04;12.90;85.40
30889;DHT22;51092;50.874;7.024;2024-02-16T03:01:07;13.00;84.50
30889;DHT22;51092;50.874;7.024;2024-02-16T03:02:09;13.10;83.60
30889;DHT22;51092;50.874;7.024;2024-02-16T03:03:11;13.00;84.00
30889;DHT22;51092;50.874;7.024;2024-02-16T03:04:15;13.00;84.40
30889;DHT22;51092;50.874;7.024;2024-02-16T03:05:16;12.90;85.00
30889;DHT22;51092;50.874;7.024;2024-02-16T03:06:21;12.90;85.20
30889;DHT22;51092;50.874;7.024;2024-02-16T03:07:22;12.90;85.60
30889;DHT22;51092;50.874;7.024;2024-02-16T03:08:25;12.90;85.80
30889;DHT22;51092;50.874;7.024;2024-02-16T03:09:27;12.90;86.20
30889;DHT22;51092;50.874;7.024;2024-02-16T03:10:30;12.90;86.70
30889;DHT22;51092;50.874;7.024;2024-02-16T03:11:36;12.80;87.20
30889;DHT22;51092;50.874;7.024;2024-02-16T03:12:38;12.80;87.20
30889;DHT22;51092;50.874;7.024;2024-02-16T03:13:40;12.90;87.10
30889;DHT22;51092;50.874;7.024;2024-02-16T03:14:41;12.90;87.10
30889;DHT22;51092;50.874;7.024;2024-02-16T03:15:44;12.90;87.00
30889;DHT22;51092;50.874;7.024;2024-02-16T03:16:46;12.90;87.30
30889;DHT22;51092;50.874;7.024;2024-02-16T03:17:48;12.90;87.30
30889;DHT22;51092;50.874;7.024;2024-02-16T03:18:50;12.90;87.70
30889;DHT22;51092;50.874;7.024;2024-02-16T03:19:52;12.90;87.50
30889;DHT22;51092;50.874;7.024;2024-02-16T03:20:54;12.90;87.50
30889;DHT22;51092;50.874;7.024;2024-02-16T03:21:56;12.90;87.70
30889;DHT22;51092;50.874;7.024;2024-02-16T03:22:58;12.80;88.10
30889;DHT22;51092;50.874;7.024;2024-02-16T03:24:01;12.90;88.30
30889;DHT22;51092;50.874;7.024;2024-02-16T03:25:04;13.00;88.40
30889;DHT22;51092;50.874;7.024;2024-02-16T03:26:13;12.90;88.00
30889;DHT22;51092;50.874;7.024;2024-02-16T03:27:15;12.90;88.00
30889;DHT22;51092;50.874;7.024;2024-02-16T03:28:17;13.10;87.30
30889;DHT22;51092;50.874;7.024;2024-02-16T03:29:19;12.90;87.70
30889;DHT22;51092;50.874;7.024;2024-02-16T03:30:21;12.90;87.80
30889;DHT22;51092;50.874;7.024;2024-02-16T03:31:23;13.00;87.80
30889;DHT22;51092;50.874;7.024;2024-02-16T03:32:26;13.10;86.80
30889;DHT22;51092;50.874;7.024;2024-02-16T03:33:27;13.10;86.60
30889;DHT22;51092;50.874;7.024;2024-02-16T03:34:30;13.00;87.20
30889;DHT22;51092;50.874;7.024;2024-02-16T03:35:31;12.90;87.90
30889;DHT22;51092;50.874;7.024;2024-02-16T03:36:34;12.90;88.30
30889;DHT22;51092;50.874;7.024;2024-02-16T03:37:35;12.90;88.60
30889;DHT22;51092;50.874;7.024;2024-02-16T03:38:38;12.80;89.00
30889;DHT22;51092;50.874;7.024;2024-02-16T03:39:42;12.90;89.20
30889;DHT22;51092;50.874;7.024;2024-02-16T03:40:45;12.80;89.70
30889;DHT22;51092;50.874;7.024;2024-02-16T03:41:47;12.80;90.20
30889;DHT22;51092;50.874;7.024;2024-02-16T03:42:50;12.90;89.70
30889;DHT22;51092;50.874;7.024;2024-02-16T03:43:52;12.80;89.30
30889;DHT22;51092;50.874;7.024;2024-02-16T03:44:55;12.80;89.50
30889;DHT22;51092;50.874;7.024;2024-02-16T03:45:57;12.80;89.70
30889;DHT22;51092;50.874;7.024;2024-02-16T03:47:00;12.90;89.80
30889;DHT22;51092;50.874;7.024;2024-02-16T03:48:01;12.90;89.60
30889;DHT22;51092;50.874;7.024;2024-02-16T03:49:04;12.80;90.50
30889;DHT22;51092;50.874;7.024;2024-02-16T03:50:06;12.80;90.60
30889;DHT22;51092;50.874;7.024;2024-02-16T03:51:09;12.70;90.60
30889;DHT22;51092;50.874;7.024;2024-02-16T03:52:10;12.70;90.90
30889;DHT22;51092;50.874;7.024;2024-02-16T03:53:14;12.80;90.80
30889;DHT22;51092;50.874;7.024;2024-02-16T03:54:15;12.70;91.00
30889;DHT22;51092;50.874;7.024;2024-02-16T03:55:18;12.70;91.00
30889;DHT22;51092;50.874;7.024;2024-02-16T03:56:22;12.80;91.10
30889;DHT22;51092;50.874;7.024;2024-02-16T03:57:25;12.70;91.10
30889;DHT22;51092;50.874;7.024;2024-02-16T03:58:27;12.70;91.30
30889;DHT22;51092;50.874;7.024;2024-02-16T03:59:29;12.70;91.40
30889;DHT22;51092;50.874;7.024;2024-02-16T04:00:31;12.60;92.00
30889;DHT22;51092;50.874;7.024;2024-02-16T04:01:33;12.60;92.20
30889;DHT22;51092;50.874;7.024;2024-02-16T04:02:36;12.60;92.30
30889;DHT22;51092;50.874;7.024;2024-02-16T04:03:37;12.60;92.00
30889;DHT22;51092;50.874;7.024;2024-02-16T04:04:40;12.60;92.40
30889;DHT22;51092;50.874;7.024;2024-02-16T04:05:41;12.60;92.30
30889;DHT22;51092;50.874;7.024;2024-02-16T04:06:43;12.60;92.60
30889;DHT22;51092;50.874;7.024;2024-02-16T04:07:44;12.50;93.10
30889;DHT22;51092;50.874;7.024;2024-02-16T04:08:46;12.50;93.20
30889;DHT22;51092;50.874;7.024;2024-02-16T04:09:49;12.60;93.30
30889;DHT22;51092;50.874;7.024;2024-02-16T04:10:52;12.50;93.50
30889;DHT22;51092;50.874;7.024;2024-02-16T04:11:55;12.40;94.00
30889;DHT22;51092;50.874;7.024;2024-02-16T04:12:57;12.50;94.00
30889;DHT22;51092;50.874;7.024;2024-02-16T04:13:58;12.60;94.30
30889;DHT22;51092;50.874;7.024;2024-02-16T04:15:01;12.50;93.60
30889;DHT22;51092;50.874;7.024;2024-02-16T04:16:03;12.50;93.80
30889;DHT22;51092;50.874;7.024;2024-02-16T04:17:05;12.50;94.00
30889;DHT22;51092;50.874;7.024;2024-02-16T04:18:07;12.50;94.00
30889;DHT22;51092;50.874;7.024;2024-02-16T04:19:10;12.40;94.40
30889;DHT22;51092;50.874;7.024;2024-02-16T04:20:12;12.40;94.80
30889;DHT22;51092;50.874;7.024;2024-02-16T04:21:14;12.40;95.20
30889;DHT22;51092;50.874;7.024;2024-02-16T04:22:15;12.40;95.80
30889;DHT22;51092;50.874;7.024;2024-02-16T04:23:18;12.40;95.30
30889;DHT22;51092;50.874;7.024;2024-02-16T04:24:20;12.40;95.70
30889;DHT22;51092;50.874;7.024;2024-02-16T04:25:23;12.40;96.10
30889;DHT22;51092;50.874;7.024;2024-02-16T04:26:24;12.40;96.40
30889;DHT22;51092;50.874;7.024;2024-02-16T04:27:27;12.40;96.40
30889;DHT22;51092;50.874;7.024;2024-02-16T04:28:30;12.50;96.10
30889;DHT22;51092;50.874;7.024;2024-02-16T04:29:31;12.40;96.20
30889;DHT22;51092;50.874;7.024;2024-02-16T04:30:34;12.40;96.60
30889;DHT22;51092;50.874;7.024;2024-02-16T04:31:36;12.40;96.30
30889;DHT22;51092;50.874;7.024;2024-02-16T04:32:41;12.50;95.90
30889;DHT22;51092;50.874;7.024;2024-02-16T04:33:42;12.50;96.30
30889;DHT22;51092;50.874;7.024;2024-02-16T04:34:45;12.50;96.30
30889;DHT22;51092;50.874;7.024;2024-02-16T04:35:47;12.50;96.80
30889;DHT22;51092;50.874;7.024;2024-02-16T04:36:51;12.40;96.20
30889;DHT22;51092;50.874;7.024;2024-02-16T04:37:54;12.40;96.40
30889;DHT22;51092;50.874;7.024;2024-02-16T04:38:55;12.40;96.40
30889;DHT22;51092;50.874;7.024;2024-02-16T04:39:58;12.40;97.30
30889;DHT22;51092;50.874;7.024;2024-02-16T04:40:58;12.50;96.30
30889;DHT22;51092;50.874;7.024;2024-02-16T04:42:00;12.40;96.10
30889;DHT22;51092;50.874;7.024;2024-02-16T04:43:03;12.50;96.70
30889;DHT22;51092;50.874;7.024;2024-02-16T04:44:05;12.50;95.60
30889;DHT22;51092;50.874;7.024;2024-02-16T04:45:07;12.40;96.00
30889;DHT22;51092;50.874;7.024;2024-02-16T04:46:14;12.40;96.10
30889;DHT22;51092;50.874;7.024;2024-02-16T04:47:15;12.40;95.90
30889;DHT22;51092;50.874;7.024;2024-02-16T04:48:18;12.40;96.10
30889;DHT22;51092;50.874;7.024;2024-02-16T04:49:19;12.40;96.00
30889;DHT22;51092;50.874;7.024;2024-02-16T04:50:23;12.40;96.30
30889;DHT22;51092;50.874;7.024;2024-02-16T04:51:25;12.40;96.10
30889;DHT22;51092;50.874;7.024;2024-02-16T04:52:27;12.40;96.50
30889;DHT22;51092;50.874;7.024;2024-02-16T04:53:29;12.40;96.70
30889;DHT22;51092;50.874;7.024;2024-02-16T04:54:31;12.40;97.20
30889;DHT22;51092;50.874;7.024;2024-02-16T04:55:33;12.30;96.90
30889;DHT22;51092;50.874;7.024;2024-02-16T04:56:35;12.30;97.10
30889;DHT22;51092;50.874;7.024;2024-02-16T04:57:36;12.40;96.70
30889;DHT22;51092;50.874;7.024;2024-02-16T04:58:41;12.50;95.70
30889;DHT22;51092;50.874;7.024;2024-02-16T04:59:43;12.40;95.80
30889;DHT22;51092;50.874;7.024;2024-02-16T05:00:45;12.40;96.00
30889;DHT22;51092;50.874;7.024;2024-02-16T05:01:48;12.50;95.40
30889;DHT22;51092;50.874;7.024;2024-02-16T05:02:50;12.50;94.90
30889;DHT22;51092;50.874;7.024;2024-02-16T05:03:52;12.50;94.70
30889;DHT22;51092;50.874;7.024;2024-02-16T05:04:57;12.50;94.70
30889;DHT22;51092;50.874;7.024;2024-02-16T05:06:00;12.50;94.70
30889;DHT22;51092;50.874;7.024;2024-02-16T05:07:02;12.50;94.60
30889;DHT22;51092;50.874;7.024;2024-02-16T05:08:04;12.50;94.50
30889;DHT22;51092;50.874;7.024;2024-02-16T05:09:07;12.50;94.60
30889;DHT22;51092;50.874;7.024;2024-02-16T05:10:09;12.50;94.90
30889;DHT22;51092;50.874;7.024;2024-02-16T05:11:12;12.50;95.00
30889;DHT22;51092;50.874;7.024;2024-02-16T05:12:13;12.50;94.80
30889;DHT22;51092;50.874;7.024;2024-02-16T05:13:16;12.50;95.10
30889;DHT22;51092;50.874;7.024;2024-02-16T05:14:20;12.50;94.60
30889;DHT22;51092;50.874;7.024;2024-02-16T05:15:23;12.50;94.40
30889;DHT22;51092;50.874;7.024;2024-02-16T05:16:25;12.50;94.40
30889;DHT22;51092;50.874;7.024;2024-02-16T05:17:27;12.50;93.90
30889;DHT22;51092;50.874;7.024;2024-02-16T05:18:29;12.50;93.90
30889;DHT22;51092;50.874;7.024;2024-02-16T05:19:32;12.60;95.50
30889;DHT22;51092;50.874;7.024;2024-02-16T05:20:36;12.70;94.40
30889;DHT22;51092;50.874;7.024;2024-02-16T05:21:37;12.70;93.40
30889;DHT22;51092;50.874;7.024;2024-02-16T05:22:39;12.60;93.20
30889;DHT22;51092;50.874;7.024;2024-02-16T05:23:41;12.60;93.70
30889;DHT22;51092;50.874;7.024;2024-02-16T05:24:43;12.60;93.30
30889;DHT22;51092;50.874;7.024;2024-02-16T05:25:47;12.70;93.30
30889;DHT22;51092;50.874;7.024;2024-02-16T05:26:50;12.60;93.50
30889;DHT22;51092;50.874;7.024;2024-02-16T05:27:53;12.60;93.30
30889;DHT22;51092;50.874;7.024;2024-02-16T05:28:55;12.60;93.50
30889;DHT22;51092;50.874;7.024;2024-02-16T05:29:58;12.50;93.80
30889;DHT22;51092;50.874;7.024;2024-02-16T05:31:12;12.50;93.80
30889;DHT22;51092;50.874;7.024;2024-02-16T05:32:15;12.60;93.50
30889;DHT22;51092;50.874;7.024;2024-02-16T05:33:17;12.60;93.40
30889;DHT22;51092;50.874;7.024;2024-02-16T05:34:19;12.60;93.60
30889;DHT22;51092;50.874;7.024;2024-02-16T05:35:24;12.60;93.40
30889;DHT22;51092;50.874;7.024;2024-02-16T05:36:28;12.60;93.20
30889;DHT22;51092;50.874;7.024;2024-02-16T05:37:36;12.60;93.00
30889;DHT22;51092;50.874;7.024;2024-02-16T05:38:38;12.60;93.30
30889;DHT22;51092;50.874;7.024;2024-02-16T05:39:44;12.60;93.20
30889;DHT22;51092;50.874;7.024;2024-02-16T05:40:54;12.60;93.20
30889;DHT22;51092;50.874;7.024;2024-02-16T05:41:57;12.50;93.20
30889;DHT22;51092;50.874;7.024;2024-02-16T05:42:59;12.60;93.00
30889;DHT22;51092;50.874;7.024;2024-02-16T05:44:01;12.60;93.00
30889;DHT22;51092;50.874;7.024;2024-02-16T05:45:07;12.60;93.40
30889;DHT22;51092;50.874;7.024;2024-02-16T05:46:13;12.60;92.80
30889;DHT22;51092;50.874;7.024;2024-02-16T05:47:15;12.70;92.70
30889;DHT22;51092;50.874;7.024;2024-02-16T05:48:17;12.60;92.70
30889;DHT22;51092;50.874;7.024;2024-02-16T05:49:23;12.60;92.80
30889;DHT22;51092;50.874;7.024;2024-02-16T05:50:25;12.60;92.90
30889;DHT22;51092;50.874;7.024;2024-02-16T05:51:34;12.60;92.90
30889;DHT22;51092;50.874;7.024;2024-02-16T05:52:35;12.60;92.90
30889;DHT22;51092;50.874;7.024;2024-02-16T05:53:38;12.60;93.10
30889;DHT22;51092;50.874;7.024;2024-02-16T05:54:42;12.60;93.00
30889;DHT22;51092;50.874;7.024;2024-02-16T05:55:44;12.50;93.10
30889;DHT22;51092;50.874;7.024;2024-02-16T05:56:48;12.60;93.20
30889;DHT22;51092;50.874;7.024;2024-02-16T05:57:50;12.60;93.30
30889;DHT22;51092;50.874;7.024;2024-02-16T05:58:52;12.60;93.30
30889;DHT22;51092;50.874;7.024;2024-02-16T05:59:54;12.60;92.80
30889;DHT22;51092;50.874;7.024;2024-02-16T06:00:58;12.60;92.80
30889;DHT22;51092;50.874;7.024;2024-02-16T06:02:00;12.60;92.70
30889;DHT22;51092;50.874;7.024;2024-02-16T06:03:05;12.60;92.50
30889;DHT22;51092;50.874;7.024;2024-02-16T06:04:08;12.60;92.40
30889;DHT22;51092;50.874;7.024;2024-02-16T06:05:09;12.60;92.40
30889;DHT22;51092;50.874;7.024;2024-02-16T06:06:12;12.60;92.30
30889;DHT22;51092;50.874;7.024;2024-02-16T06:07:13;12.60;92.20
30889;DHT22;51092;50.874;7.024;2024-02-16T06:08:16;12.60;92.20
30889;DHT22;51092;50.874;7.024;2024-02-16T06:09:18;12.70;92.10
30889;DHT22;51092;50.874;7.024;2024-02-16T06:10:21;12.60;92.10
30889;DHT22;51092;50.874;7.024;2024-02-16T06:11:22;12.50;92.00
30889;DHT22;51092;50.874;7.024;2024-02-16T06:12:25;12.60;92.10
30889;DHT22;51092;50.874;7.024;2024-02-16T06:13:26;12.50;92.70
30889;DHT22;51092;50.874;7.024;2024-02-16T06:14:30;12.60;92.00
30889;DHT22;51092;50.874;7.024;2024-02-16T06:15:32;12.60;91.70
30889;DHT22;51092;50.874;7.024;2024-02-16T06:16:36;12.60;91.50
30889;DHT22;51092;50.874;7.024;2024-02-16T06:17:38;12.60;91.30
30889;DHT22;51092;50.874;7.024;2024-02-16T06:18:39;12.80;90.80
30889;DHT22;51092;50.874;7.024;2024-02-16T06:19:45;12.70;90.70
30889;DHT22;51092;50.874;7.024;2024-02-16T06:20:46;12.70;90.50
30889;DHT22;51092;50.874;7.024;2024-02-16T06:21:49;12.70;90.60
30889;DHT22;51092;50.874;7.024;2024-02-16T06:22:50;12.70;90.70
30889;DHT22;51092;50.874;7.024;2024-02-16T06:23:54;12.70;90.60
30889;DHT22;51092;50.874;7.024;2024-02-16T06:24:57;12.70;90.50
30889;DHT22;51092;50.874;7.024;2024-02-16T06:25:59;12.80;90.60
30889;DHT22;51092;50.874;7.024;2024-02-16T06:27:01;12.70;90.40
30889;DHT22;51092;50.874;7.024;2024-02-16T06:28:04;12.80;90.00
30889;DHT22;51092;50.874;7.024;2024-02-16T06:29:06;12.80;89.70
30889;DHT22;51092;50.874;7.024;2024-02-16T06:30:08;12.70;90.00
30889;DHT22;51092;50.874;7.024;2024-02-16T06:31:15;12.80;90.00
30889;DHT22;51092;50.874;7.024;2024-02-16T06:32:18;12.80;89.50
30889;DHT22;51092;50.874;7.024;2024-02-16T06:33:20;12.80;89.90
30889;DHT22;51092;50.874;7.024;2024-02-16T06:34:22;12.80;88.70